Time;durP1;ratioP1;P1;durP2;ratioP2;P2;SDS_P1;SDS_P2;PMS_P1;PMS_P2;Temp;Humidity;BMP_temperature;BMP_pressure;BME280_temperature;BME280_humidity;BME280_pressure;Samples;Min_cycle;Max_cycle;Signal;HPM_P1;HPM_P2
2022/07/07 00:00:51;;;;;;;13.00;3.80;;;14.50;99.90;;;;;;5006672;28;20053;-62
2022/07/07 00:03:17;;;;;;;5.55;3.78;;;14.50;99.90;;;;;;5006365;28;20037;-61
2022/07/07 00:05:42;;;;;;;7.93;3.95;;;14.50;99.90;;;;;;5007477;28;20080;-62
2022/07/07 00:08:08;;;;;;;11.20;4.25;;;14.50;99.90;;;;;;5005393;28;20030;-62
2022/07/07 00:10:33;;;;;;;9.25;3.90;;;14.50;99.90;;;;;;5013043;28;20044;-62
2022/07/07 00:12:59;;;;;;;5.60;3.65;;;14.50;99.90;;;;;;5016863;28;20061;-62
2022/07/07 00:15:25;;;;;;;7.32;4.50;;;14.50;99.90;;;;;;5008882;28;20056;-61
2022/07/07 00:17:50;;;;;;;7.63;3.88;;;14.50;99.90;;;;;;5005818;28;20026;-61
2022/07/07 00:20:16;;;;;;;8.88;4.07;;;14.60;99.90;;;;;;5021198;28;20052;-62
2022/07/07 00:22:42;;;;;;;5.60;4.13;;;14.60;99.90;;;;;;5008888;28;20449;-61
2022/07/07 00:25:08;;;;;;;8.90;4.00;;;14.60;99.90;;;;;;5027319;28;20037;-61
2022/07/07 00:27:34;;;;;;;6.32;3.88;;;14.50;99.90;;;;;;5017415;28;20029;-62
2022/07/07 00:29:59;;;;;;;8.27;4.43;;;14.50;99.90;;;;;;5030155;28;20559;-62
2022/07/07 00:32:25;;;;;;;5.75;4.05;;;14.50;99.90;;;;;;5014394;28;20056;-61
2022/07/07 00:34:51;;;;;;;8.73;4.20;;;14.50;99.90;;;;;;5010466;28;20033;-61
2022/07/07 00:37:16;;;;;;;7.32;4.43;;;14.50;99.90;;;;;;5020680;28;20032;-62
2022/07/07 00:39:42;;;;;;;10.73;4.30;;;14.50;99.90;;;;;;5024694;28;20047;-61
2022/07/07 00:42:14;;;;;;;5.78;4.10;;;14.40;99.90;;;;;;5019004;28;20116;-61
2022/07/07 00:44:40;;;;;;;7.15;3.50;;;14.40;99.90;;;;;;5013195;28;20040;-62
2022/07/07 00:47:06;;;;;;;8.50;3.97;;;14.40;99.90;;;;;;5010570;28;20038;-61
2022/07/07 00:49:32;;;;;;;7.57;4.30;;;14.40;99.90;;;;;;5010972;28;20034;-61
2022/07/07 00:51:59;;;;;;;8.02;4.55;;;14.40;99.90;;;;;;5010865;28;20042;-61
2022/07/07 00:54:25;;;;;;;9.73;4.03;;;14.40;99.90;;;;;;5016969;28;20053;-61
2022/07/07 00:56:51;;;;;;;9.30;4.53;;;14.40;99.90;;;;;;5021094;28;20038;-62
2022/07/07 00:59:17;;;;;;;6.63;4.30;;;14.30;99.90;;;;;;5027098;28;20079;-62
2022/07/07 01:01:43;;;;;;;6.55;4.25;;;14.40;99.90;;;;;;5008321;28;20034;-62
2022/07/07 01:04:13;;;;;;;8.07;4.13;;;14.40;99.90;;;;;;5010008;28;20045;-62
2022/07/07 01:06:40;;;;;;;7.17;4.40;;;14.50;99.90;;;;;;5010334;28;20030;-62
2022/07/07 01:09:06;;;;;;;10.00;4.72;;;14.50;99.90;;;;;;5018639;28;20039;-62
2022/07/07 01:11:50;;;;;;;7.35;4.28;;;14.40;99.90;;;;;;5011271;28;20073;-62
2022/07/07 01:14:16;;;;;;;6.50;4.15;;;14.40;99.90;;;;;;5014321;28;20037;-61
2022/07/07 01:16:42;;;;;;;8.00;4.55;;;14.40;99.90;;;;;;5017177;28;20030;-61
2022/07/07 01:19:07;;;;;;;10.32;4.63;;;14.40;99.90;;;;;;5027510;28;20087;-61
2022/07/07 01:21:42;;;;;;;7.93;4.38;;;14.40;99.90;;;;;;5024383;28;20455;-61
2022/07/07 01:24:08;;;;;;;6.53;4.38;;;14.40;99.90;;;;;;5025322;28;20458;-62
2022/07/07 01:26:33;;;;;;;8.57;4.78;;;14.40;99.90;;;;;;5015950;28;20052;-61
2022/07/07 01:28:59;;;;;;;6.15;4.00;;;14.40;99.90;;;;;;5027862;28;20090;-62
2022/07/07 01:31:25;;;;;;;6.82;4.40;;;14.50;99.90;;;;;;5011917;28;20061;-62
2022/07/07 01:33:50;;;;;;;6.22;4.10;;;14.50;99.90;;;;;;5015435;28;20048;-62
2022/07/07 01:36:16;;;;;;;8.07;4.95;;;14.50;99.90;;;;;;5012800;28;20030;-62
2022/07/07 01:38:41;;;;;;;12.32;4.25;;;14.50;99.90;;;;;;5008607;28;20033;-62
2022/07/07 01:41:07;;;;;;;6.90;4.47;;;14.40;99.90;;;;;;5015277;28;20034;-62
2022/07/07 01:43:33;;;;;;;9.68;4.32;;;14.40;99.90;;;;;;5018023;28;20029;-62
2022/07/07 01:45:59;;;;;;;6.22;4.28;;;14.50;99.90;;;;;;5007523;28;20022;-61
2022/07/07 01:48:25;;;;;;;8.15;4.53;;;14.50;99.90;;;;;;5007672;28;20715;-62
2022/07/07 01:50:50;;;;;;;7.35;4.20;;;14.60;99.90;;;;;;5028041;28;20045;-62
2022/07/07 01:53:16;;;;;;;7.90;4.20;;;14.50;99.90;;;;;;5027223;28;20037;-62
2022/07/07 01:55:41;;;;;;;8.25;4.70;;;14.50;99.90;;;;;;5013469;28;20065;-61
2022/07/07 01:58:07;;;;;;;7.70;4.43;;;14.50;99.90;;;;;;5013948;28;20033;-62
2022/07/07 02:00:33;;;;;;;7.13;4.13;;;14.50;99.90;;;;;;5013516;28;20049;-61
2022/07/07 02:02:58;;;;;;;6.93;3.80;;;14.40;99.90;;;;;;5002469;28;20057;-62
2022/07/07 02:05:24;;;;;;;5.72;3.97;;;14.30;99.90;;;;;;5013604;28;20030;-62
2022/07/07 02:07:50;;;;;;;7.05;4.30;;;14.30;99.90;;;;;;5016773;28;20025;-62
2022/07/07 02:13:00;;;;;;;6.80;4.10;;;14.30;99.90;;;;;;5008380;28;20811;-61
2022/07/07 02:15:26;;;;;;;7.43;4.05;;;14.40;99.90;;;;;;5008416;28;20100;-62
2022/07/07 02:17:52;;;;;;;8.95;4.68;;;14.50;99.90;;;;;;5021876;28;20033;-62
2022/07/07 02:20:17;;;;;;;9.55;4.20;;;14.50;99.90;;;;;;5015375;28;20454;-62
2022/07/07 02:22:43;;;;;;;8.32;4.60;;;14.50;99.90;;;;;;5015251;28;20379;-62
2022/07/07 02:25:09;;;;;;;11.75;4.88;;;14.60;99.90;;;;;;5017548;28;20038;-61
2022/07/07 02:27:34;;;;;;;7.32;4.07;;;14.50;99.90;;;;;;5006574;28;20022;-62
2022/07/07 02:30:00;;;;;;;8.05;4.30;;;14.40;99.90;;;;;;5008872;28;20509;-62
2022/07/07 02:32:25;;;;;;;13.57;4.63;;;14.40;99.90;;;;;;5016764;28;20044;-62
2022/07/07 02:34:51;;;;;;;8.38;4.70;;;14.30;99.90;;;;;;5019451;28;20057;-62
2022/07/07 02:37:17;;;;;;;10.10;4.10;;;14.20;99.90;;;;;;5011866;28;20116;-61
2022/07/07 02:39:42;;;;;;;9.55;4.75;;;14.20;99.90;;;;;;5014540;28;20434;-62
2022/07/07 02:42:08;;;;;;;10.45;4.65;;;14.30;99.90;;;;;;5008379;28;20548;-62
2022/07/07 02:44:33;;;;;;;11.95;4.38;;;14.30;99.90;;;;;;5008785;28;20026;-62
2022/07/07 02:46:59;;;;;;;7.68;4.40;;;14.30;99.90;;;;;;5007628;28;20034;-62
2022/07/07 02:49:25;;;;;;;7.50;4.32;;;14.30;99.90;;;;;;5008351;28;20033;-61
2022/07/07 02:51:50;;;;;;;9.15;5.00;;;14.40;99.90;;;;;;5008757;28;20087;-62
2022/07/07 02:54:17;;;;;;;9.50;4.50;;;14.40;99.90;;;;;;5008456;28;20100;-62
2022/07/07 02:56:43;;;;;;;7.43;4.70;;;14.40;99.90;;;;;;5009566;28;20049;-62
2022/07/07 02:59:08;;;;;;;8.50;5.00;;;14.50;99.90;;;;;;5007764;28;20542;-62
2022/07/07 03:01:34;;;;;;;6.43;4.18;;;14.50;99.90;;;;;;5006784;28;20041;-62
2022/07/07 03:04:00;;;;;;;7.53;4.78;;;14.40;99.90;;;;;;5006755;28;20038;-62
2022/07/07 03:06:25;;;;;;;10.00;4.57;;;14.50;99.90;;;;;;5009005;28;20025;-62
2022/07/07 03:08:51;;;;;;;8.85;4.70;;;14.40;99.90;;;;;;5010107;28;20038;-62
2022/07/07 03:11:17;;;;;;;8.07;4.50;;;14.40;99.90;;;;;;5007822;28;20030;-62
2022/07/07 03:13:43;;;;;;;8.45;4.70;;;14.30;99.90;;;;;;5008215;28;20029;-62
2022/07/07 03:16:12;;;;;;;7.95;4.88;;;14.30;99.90;;;;;;5007745;28;20115;-62
2022/07/07 03:18:37;;;;;;;9.05;5.10;;;14.20;99.90;;;;;;5010725;28;20038;-62
2022/07/07 03:21:03;;;;;;;9.80;4.72;;;14.10;99.90;;;;;;5008315;28;21522;-61
2022/07/07 03:23:29;;;;;;;10.80;5.47;;;14.00;99.90;;;;;;5006280;28;20557;-60
2022/07/07 03:25:55;;;;;;;10.00;5.20;;;13.90;99.90;;;;;;5008283;28;20109;-62
2022/07/07 03:28:20;;;;;;;8.27;4.72;;;13.80;99.90;;;;;;5007960;28;20052;-61
2022/07/07 03:30:46;;;;;;;8.68;5.03;;;13.70;99.90;;;;;;5007992;28;20669;-61
2022/07/07 03:33:12;;;;;;;15.52;4.35;;;13.70;99.90;;;;;;5008404;28;20038;-62
2022/07/07 03:35:38;;;;;;;13.38;4.38;;;13.70;99.90;;;;;;5008767;28;20022;-62
2022/07/07 03:38:05;;;;;;;8.68;4.38;;;13.70;99.90;;;;;;5006896;28;20387;-61
2022/07/07 03:40:30;;;;;;;8.38;4.53;;;13.70;99.90;;;;;;5003933;28;20042;-62
2022/07/07 03:42:56;;;;;;;11.85;4.82;;;13.70;99.90;;;;;;5003701;28;20034;-62
2022/07/07 03:45:22;;;;;;;9.93;4.72;;;13.80;99.90;;;;;;5010155;28;20034;-62
2022/07/07 03:47:50;;;;;;;7.93;4.35;;;13.80;99.90;;;;;;5009154;28;20034;-61
2022/07/07 03:50:16;;;;;;;11.18;4.88;;;13.80;99.90;;;;;;5006059;28;20030;-61
2022/07/07 03:52:41;;;;;;;11.50;4.60;;;13.80;99.90;;;;;;5006729;28;20104;-62
2022/07/07 03:55:08;;;;;;;10.07;4.82;;;13.90;99.90;;;;;;5010417;28;20060;-61
2022/07/07 03:57:34;;;;;;;8.65;4.65;;;13.90;99.90;;;;;;5011645;28;20390;-62
2022/07/07 04:00:00;;;;;;;8.13;4.55;;;13.80;99.90;;;;;;5015064;28;20033;-62
2022/07/07 04:02:26;;;;;;;10.50;4.88;;;13.80;99.90;;;;;;5011765;28;20545;-62
2022/07/07 04:04:52;;;;;;;6.78;4.28;;;13.80;99.90;;;;;;5020089;28;20102;-65
2022/07/07 04:07:18;;;;;;;7.57;4.50;;;13.80;99.90;;;;;;5012696;28;20544;-63
2022/07/07 04:09:44;;;;;;;7.20;4.22;;;13.90;99.90;;;;;;5025947;28;20050;-63
2022/07/07 04:12:09;;;;;;;7.35;4.00;;;13.90;99.90;;;;;;5012834;28;20653;-62
2022/07/07 04:14:35;;;;;;;8.50;4.18;;;14.00;99.90;;;;;;5010523;28;20041;-64
2022/07/07 04:17:01;;;;;;;6.53;3.78;;;14.00;99.90;;;;;;5013423;28;20029;-62
2022/07/07 04:19:27;;;;;;;11.50;4.47;;;14.00;99.90;;;;;;5030715;28;20068;-63
2022/07/07 04:21:52;;;;;;;8.85;3.97;;;14.00;99.90;;;;;;5008124;28;20035;-66
2022/07/07 04:24:18;;;;;;;5.65;3.67;;;14.00;99.90;;;;;;5007783;28;21069;-62
2022/07/07 04:26:44;;;;;;;10.35;3.65;;;14.00;99.90;;;;;;5007641;28;20759;-62
2022/07/07 04:29:09;;;;;;;6.32;3.60;;;14.00;99.90;;;;;;5008778;28;20037;-63
2022/07/07 04:31:35;;;;;;;8.80;3.95;;;14.00;99.90;;;;;;5011762;28;20057;-62
2022/07/07 04:34:02;;;;;;;6.97;3.80;;;14.10;99.90;;;;;;5009986;28;20064;-63
2022/07/07 04:36:27;;;;;;;6.93;3.80;;;14.10;99.90;;;;;;5012133;28;20022;-63
2022/07/07 04:38:53;;;;;;;13.50;4.22;;;14.10;99.90;;;;;;5009721;28;20034;-65
2022/07/07 04:41:19;;;;;;;11.60;4.10;;;14.20;99.90;;;;;;5011344;28;20033;-62
2022/07/07 04:43:44;;;;;;;8.73;3.80;;;14.30;99.90;;;;;;5009932;28;20449;-62
2022/07/07 04:46:10;;;;;;;9.00;3.78;;;14.30;99.90;;;;;;5010791;28;20029;-63
2022/07/07 04:48:36;;;;;;;7.65;3.55;;;14.30;99.90;;;;;;5010276;28;20049;-63
2022/07/07 04:51:02;;;;;;;10.80;4.07;;;14.30;99.90;;;;;;5010888;28;20029;-62
2022/07/07 04:53:27;;;;;;;8.15;3.85;;;14.30;99.90;;;;;;5009596;28;20025;-64
2022/07/07 04:55:53;;;;;;;7.75;3.75;;;14.30;99.90;;;;;;5010549;28;20053;-64
2022/07/07 04:58:19;;;;;;;11.48;3.78;;;14.40;99.90;;;;;;5008429;28;20040;-62
2022/07/07 05:00:44;;;;;;;9.60;3.58;;;14.40;99.90;;;;;;5010176;28;20056;-63
2022/07/07 05:03:10;;;;;;;7.03;4.05;;;14.30;99.90;;;;;;5009867;28;20030;-63
2022/07/07 05:05:36;;;;;;;5.75;3.78;;;14.30;99.90;;;;;;5009969;28;20080;-64
2022/07/07 05:08:01;;;;;;;8.30;4.05;;;14.30;99.90;;;;;;5009628;28;20439;-62
2022/07/07 05:10:27;;;;;;;6.90;4.03;;;14.20;99.90;;;;;;5009002;28;20112;-63
2022/07/07 05:12:53;;;;;;;13.90;3.88;;;14.20;99.90;;;;;;5008517;28;20113;-66
2022/07/07 05:15:18;;;;;;;10.20;4.30;;;14.30;99.90;;;;;;5008080;28;20363;-62
2022/07/07 05:17:45;;;;;;;7.43;3.53;;;14.30;99.90;;;;;;5009975;28;20030;-63
2022/07/07 05:20:11;;;;;;;7.30;3.78;;;14.30;99.90;;;;;;5008648;28;20044;-64
2022/07/07 05:22:37;;;;;;;7.68;4.03;;;14.30;99.90;;;;;;5010934;28;20509;-63
2022/07/07 05:25:02;;;;;;;6.50;3.85;;;14.30;99.90;;;;;;5009328;28;20065;-62
2022/07/07 05:27:28;;;;;;;8.85;3.60;;;14.40;99.90;;;;;;5007987;28;20446;-62
2022/07/07 05:29:54;;;;;;;8.07;3.50;;;14.50;99.90;;;;;;5009132;28;20037;-65
2022/07/07 05:32:19;;;;;;;8.88;3.72;;;14.60;99.90;;;;;;5008795;28;20108;-62
2022/07/07 05:34:45;;;;;;;9.25;3.95;;;14.60;99.90;;;;;;5009703;28;20091;-62
2022/07/07 05:37:10;;;;;;;9.77;3.63;;;14.70;99.90;;;;;;5008415;28;20030;-63
2022/07/07 05:39:36;;;;;;;7.70;4.03;;;14.80;99.90;;;;;;5009067;28;20049;-62
2022/07/07 05:42:02;;;;;;;6.10;3.72;;;14.70;99.90;;;;;;5008666;28;20178;-62
2022/07/07 05:44:28;;;;;;;8.38;3.45;;;14.80;99.90;;;;;;5010081;28;20105;-62
2022/07/07 05:46:53;;;;;;;6.78;3.42;;;14.80;99.90;;;;;;5002024;28;20034;-61
2022/07/07 05:49:20;;;;;;;10.73;3.67;;;14.90;99.90;;;;;;5006426;28;20037;-62
2022/07/07 05:51:45;;;;;;;4.10;2.97;;;14.80;99.90;;;;;;5003756;28;20660;-62
2022/07/07 05:54:11;;;;;;;8.85;3.30;;;14.80;99.90;;;;;;5007672;28;20141;-62
2022/07/07 05:56:36;;;;;;;6.30;3.17;;;14.90;99.90;;;;;;5006242;28;20038;-63
2022/07/07 05:59:02;;;;;;;9.30;3.00;;;14.90;99.90;;;;;;5007659;28;20037;-62
2022/07/07 06:01:28;;;;;;;7.85;2.95;;;14.90;99.90;;;;;;5008217;28;20041;-63
2022/07/07 06:03:53;;;;;;;6.00;2.95;;;14.90;99.90;;;;;;5008171;28;20049;-62
2022/07/07 06:06:19;;;;;;;6.47;3.03;;;14.90;99.90;;;;;;4995964;28;20038;-62
2022/07/07 06:08:45;;;;;;;6.22;3.05;;;14.90;99.90;;;;;;5002765;28;20037;-63
2022/07/07 06:11:10;;;;;;;8.38;2.88;;;14.80;99.90;;;;;;5009574;28;20080;-64
2022/07/07 06:13:36;;;;;;;12.15;3.30;;;14.90;99.90;;;;;;5008951;28;20795;-64
2022/07/07 06:16:02;;;;;;;9.40;3.30;;;14.90;99.90;;;;;;5007339;28;20033;-63
2022/07/07 06:18:27;;;;;;;8.35;3.20;;;14.90;99.90;;;;;;5009925;28;20060;-64
2022/07/07 06:20:54;;;;;;;9.07;3.40;;;15.00;99.90;;;;;;5007945;28;20030;-62
2022/07/07 06:23:19;;;;;;;4.93;3.30;;;15.10;99.90;;;;;;5007965;28;20014;-63
2022/07/07 06:25:45;;;;;;;6.50;3.50;;;15.10;99.90;;;;;;5008038;28;20040;-63
2022/07/07 06:28:11;;;;;;;7.57;3.42;;;15.10;99.90;;;;;;5005370;28;20038;-63
2022/07/07 06:30:37;;;;;;;5.72;3.22;;;15.10;99.90;;;;;;5006720;28;20037;-62
2022/07/07 06:33:03;;;;;;;6.82;3.10;;;15.20;99.90;;;;;;5008811;28;20030;-62
2022/07/07 06:35:29;;;;;;;5.13;2.92;;;15.20;99.90;;;;;;5008540;28;20386;-62
2022/07/07 06:37:55;;;;;;;7.00;3.00;;;15.10;99.90;;;;;;5009638;28;20037;-63
2022/07/07 06:40:21;;;;;;;9.18;3.40;;;15.20;99.90;;;;;;5008110;28;20104;-64
2022/07/07 06:42:47;;;;;;;9.10;3.30;;;15.30;99.90;;;;;;5007886;28;20117;-62
2022/07/07 06:45:12;;;;;;;6.35;3.50;;;15.30;99.90;;;;;;5007676;28;20026;-62
2022/07/07 06:47:38;;;;;;;9.40;3.97;;;15.30;99.90;;;;;;5008588;28;20482;-62
2022/07/07 06:50:04;;;;;;;6.75;3.22;;;15.30;99.90;;;;;;5007291;28;20041;-62
2022/07/07 06:52:30;;;;;;;8.98;3.45;;;15.40;99.90;;;;;;5007953;28;20117;-63
2022/07/07 06:54:56;;;;;;;7.15;3.33;;;15.40;99.90;;;;;;5007088;28;20465;-62
2022/07/07 06:57:21;;;;;;;6.13;3.60;;;15.40;99.90;;;;;;5007744;28;20558;-62
2022/07/07 06:59:47;;;;;;;7.82;3.55;;;15.40;99.90;;;;;;5006155;28;20029;-62
2022/07/07 07:02:13;;;;;;;8.68;3.17;;;15.30;99.90;;;;;;5006724;28;20030;-62
2022/07/07 07:04:39;;;;;;;7.90;3.47;;;15.50;99.90;;;;;;5005995;28;20537;-62
2022/07/07 07:07:04;;;;;;;5.82;3.35;;;15.70;99.90;;;;;;5006794;28;20030;-62
2022/07/07 07:09:30;;;;;;;5.55;2.90;;;15.90;99.90;;;;;;5009174;28;20030;-64
2022/07/07 07:11:56;;;;;;;8.35;3.35;;;16.40;99.90;;;;;;5003873;28;20037;-65
2022/07/07 07:14:22;;;;;;;8.60;3.38;;;16.70;99.90;;;;;;5007111;28;20108;-62
2022/07/07 07:16:48;;;;;;;7.78;3.13;;;17.10;99.90;;;;;;5006921;28;20037;-63
2022/07/07 07:19:14;;;;;;;4.68;3.17;;;17.20;99.90;;;;;;5007454;28;20144;-64
2022/07/07 07:21:39;;;;;;;6.03;2.88;;;17.40;99.90;;;;;;5008377;28;20120;-62
2022/07/07 07:24:05;;;;;;;16.15;3.22;;;17.40;99.90;;;;;;5007709;28;20030;-64
2022/07/07 07:26:31;;;;;;;6.35;3.03;;;17.30;99.90;;;;;;5005702;28;20042;-63
2022/07/07 07:28:57;;;;;;;7.88;3.13;;;17.20;99.90;;;;;;5011434;28;20036;-63
2022/07/07 07:31:23;;;;;;;4.15;2.80;;;17.00;99.90;;;;;;4992238;28;20282;-63
2022/07/07 07:33:48;;;;;;;9.05;2.88;;;17.00;99.90;;;;;;5007009;28;20478;-63
2022/07/07 07:36:14;;;;;;;12.45;3.33;;;17.10;99.90;;;;;;5011085;28;20120;-63
2022/07/07 07:38:41;;;;;;;5.22;2.70;;;17.20;99.90;;;;;;5012974;28;20044;-64
2022/07/07 07:41:09;;;;;;;6.32;2.92;;;17.30;99.90;;;;;;5009306;28;20037;-65
2022/07/07 07:43:35;;;;;;;7.95;3.45;;;17.40;99.90;;;;;;5011572;28;20646;-63
2022/07/07 07:46:01;;;;;;;8.32;4.03;;;17.50;99.90;;;;;;5008851;28;20109;-64
2022/07/07 07:48:26;;;;;;;6.63;2.90;;;17.50;99.90;;;;;;5009186;28;20531;-63
2022/07/07 07:50:52;;;;;;;5.40;2.90;;;17.50;99.90;;;;;;5010784;28;20883;-63
2022/07/07 07:53:18;;;;;;;10.10;3.22;;;17.50;99.90;;;;;;5008296;28;20525;-63
2022/07/07 07:55:44;;;;;;;5.55;3.45;;;17.80;99.90;;;;;;5010717;28;20050;-62
2022/07/07 07:58:10;;;;;;;8.35;3.00;;;18.10;99.90;;;;;;5008572;28;20741;-63
2022/07/07 08:00:36;;;;;;;8.73;3.58;;;18.20;99.90;;;;;;5009153;28;20530;-64
2022/07/07 08:03:02;;;;;;;7.70;3.33;;;18.00;99.90;;;;;;5000897;28;20034;-64
2022/07/07 08:05:28;;;;;;;8.57;3.25;;;17.90;99.90;;;;;;5026930;28;20029;-61
2022/07/07 08:07:54;;;;;;;5.70;3.00;;;18.00;99.90;;;;;;5011355;28;20034;-63
2022/07/07 08:10:19;;;;;;;11.00;3.28;;;18.10;99.90;;;;;;5007470;28;20029;-63
2022/07/07 08:12:47;;;;;;;8.70;3.17;;;18.20;99.90;;;;;;5011105;28;20034;-62
2022/07/07 08:15:14;;;;;;;16.27;3.50;;;18.20;99.90;;;;;;5009011;28;20038;-63
2022/07/07 08:17:40;;;;;;;7.70;3.35;;;18.30;99.90;;;;;;5011601;28;20030;-62
2022/07/07 08:20:06;;;;;;;8.43;2.90;;;18.30;99.90;;;;;;5011655;28;20041;-64
2022/07/07 08:22:32;;;;;;;7.45;3.28;;;18.10;99.90;;;;;;5008365;28;20080;-62
2022/07/07 08:24:58;;;;;;;6.57;3.45;;;18.00;99.90;;;;;;4997354;28;20172;-62
2022/07/07 08:27:24;;;;;;;7.60;3.13;;;17.90;99.90;;;;;;5010720;28;20026;-62
2022/07/07 08:29:50;;;;;;;9.60;3.30;;;17.90;99.90;;;;;;5011954;28;20437;-62
2022/07/07 08:32:15;;;;;;;5.72;3.00;;;18.00;99.90;;;;;;5011274;28;20053;-62
2022/07/07 08:34:42;;;;;;;7.22;3.38;;;17.90;99.90;;;;;;5011612;28;20018;-62
2022/07/07 08:37:08;;;;;;;9.90;3.28;;;17.80;99.90;;;;;;5011436;28;20038;-65
2022/07/07 08:39:34;;;;;;;7.38;3.42;;;17.80;99.90;;;;;;5009425;28;20530;-61
2022/07/07 08:42:00;;;;;;;8.07;3.05;;;17.80;99.90;;;;;;5011551;28;20045;-62
2022/07/07 08:44:26;;;;;;;8.52;3.22;;;17.80;99.90;;;;;;5012388;28;20042;-62
2022/07/07 08:46:52;;;;;;;6.53;3.47;;;17.80;99.90;;;;;;5012624;28;20498;-62
2022/07/07 08:49:19;;;;;;;12.52;3.35;;;17.70;99.90;;;;;;5011117;28;20049;-62
2022/07/07 08:51:46;;;;;;;9.35;3.40;;;17.60;99.90;;;;;;5010129;28;20037;-63
2022/07/07 08:54:14;;;;;;;9.68;3.53;;;17.50;99.90;;;;;;5007061;28;20060;-62
2022/07/07 08:56:40;;;;;;;9.35;3.17;;;17.50;99.90;;;;;;5011219;28;20048;-62
2022/07/07 08:59:07;;;;;;;6.53;3.63;;;17.50;99.90;;;;;;5008697;28;20522;-63
2022/07/07 09:01:34;;;;;;;9.40;3.67;;;17.60;99.90;;;;;;5011007;28;20032;-63
2022/07/07 09:04:01;;;;;;;13.48;3.47;;;17.60;99.90;;;;;;5010161;28;20034;-62
2022/07/07 09:06:26;;;;;;;5.57;3.70;;;17.70;99.90;;;;;;5010395;28;20153;-62
2022/07/07 09:08:53;;;;;;;9.18;3.90;;;17.70;99.90;;;;;;5010640;28;20622;-62
2022/07/07 09:11:25;;;;;;;10.80;3.60;;;17.60;99.90;;;;;;5008905;28;20117;-62
2022/07/07 09:13:51;;;;;;;8.65;3.53;;;17.60;99.90;;;;;;5009755;28;20382;-62
2022/07/07 09:16:18;;;;;;;9.70;3.35;;;17.50;99.90;;;;;;5009656;28;20044;-63
2022/07/07 09:18:45;;;;;;;7.85;3.38;;;17.50;99.90;;;;;;5011246;28;20038;-62
2022/07/07 09:21:32;;;;;;;13.07;4.00;;;17.50;99.90;;;;;;5008740;28;20045;-65
2022/07/07 09:24:00;;;;;;;10.65;3.70;;;17.50;99.90;;;;;;5009944;28;20132;-63
2022/07/07 09:26:40;;;;;;;12.70;3.53;;;17.50;99.90;;;;;;5009017;28;20409;-64
2022/07/07 09:29:13;;;;;;;14.33;3.70;;;17.40;99.90;;;;;;5008072;28;20048;-63
2022/07/07 09:31:59;;;;;;;6.03;3.67;;;17.40;99.90;;;;;;5011208;28;20025;-62
2022/07/07 09:34:33;;;;;;;9.02;3.83;;;17.30;99.90;;;;;;5004288;28;20022;-64
2022/07/07 09:39:47;;;;;;;10.68;4.10;;;17.20;99.90;;;;;;5010150;28;20077;-64
2022/07/07 09:42:32;;;;;;;11.52;3.80;;;17.20;99.90;;;;;;5009871;28;20087;-63
2022/07/07 09:45:05;;;;;;;11.40;4.07;;;17.30;99.90;;;;;;5008518;28;20030;-63
2022/07/07 09:47:34;;;;;;;8.85;3.72;;;17.30;99.90;;;;;;5009378;28;20056;-67
2022/07/07 09:50:15;;;;;;;8.90;4.35;;;17.40;99.90;;;;;;5009117;28;20041;-64
2022/07/07 09:52:47;;;;;;;12.13;4.60;;;17.30;99.90;;;;;;5009179;28;20034;-64
2022/07/07 09:55:14;;;;;;;11.45;5.00;;;17.40;99.90;;;;;;5009818;28;20092;-66
2022/07/07 09:57:42;;;;;;;10.27;4.88;;;17.50;99.90;;;;;;5009220;28;20022;-63
2022/07/07 10:00:09;;;;;;;10.15;4.82;;;17.60;99.90;;;;;;5009847;28;20025;-63
2022/07/07 10:02:36;;;;;;;13.90;4.55;;;17.70;99.90;;;;;;5007546;28;21801;-63
2022/07/07 10:05:03;;;;;;;11.73;5.00;;;17.80;99.90;;;;;;5006521;28;20065;-63
2022/07/07 10:07:32;;;;;;;13.10;5.00;;;18.00;99.90;;;;;;5001293;28;20030;-63
2022/07/07 10:10:05;;;;;;;11.77;4.50;;;18.00;99.90;;;;;;5003497;28;20041;-63
2022/07/07 10:12:32;;;;;;;8.23;4.13;;;18.10;99.90;;;;;;5007248;28;20123;-63
2022/07/07 10:15:00;;;;;;;8.82;4.32;;;18.20;99.90;;;;;;5004949;28;20128;-63
2022/07/07 10:17:28;;;;;;;6.50;4.28;;;18.20;99.90;;;;;;5008165;28;20497;-64
2022/07/07 10:19:54;;;;;;;9.05;4.90;;;18.40;99.90;;;;;;5009126;28;20148;-66
2022/07/07 10:22:26;;;;;;;9.73;4.80;;;18.40;99.90;;;;;;4999456;28;20046;-66
2022/07/07 10:24:56;;;;;;;16.65;4.82;;;18.40;99.90;;;;;;5005009;28;20053;-64
2022/07/07 10:27:24;;;;;;;12.63;4.73;;;18.40;99.90;;;;;;5008983;28;20053;-64
2022/07/07 10:29:55;;;;;;;8.77;4.93;;;18.40;99.90;;;;;;5007489;28;20038;-65
2022/07/07 10:32:31;;;;;;;11.10;5.55;;;18.50;99.90;;;;;;5006621;28;20033;-64
2022/07/07 10:34:59;;;;;;;18.08;5.05;;;18.30;99.90;;;;;;5008653;28;20544;-63
2022/07/07 10:37:26;;;;;;;11.68;5.07;;;18.30;99.90;;;;;;5008807;28;20490;-64
2022/07/07 10:39:56;;;;;;;13.88;5.28;;;18.20;99.90;;;;;;5007434;28;20509;-65
2022/07/07 10:42:43;;;;;;;11.75;5.10;;;18.20;99.90;;;;;;5008900;28;20038;-64
2022/07/07 10:45:10;;;;;;;8.55;5.63;;;18.00;99.90;;;;;;5008276;28;20045;-62
2022/07/07 10:47:36;;;;;;;13.20;5.07;;;17.90;99.90;;;;;;5006884;28;20025;-63
2022/07/07 10:50:03;;;;;;;14.20;5.35;;;18.00;99.90;;;;;;5008742;28;20033;-63
2022/07/07 10:52:40;;;;;;;9.27;4.18;;;18.10;99.90;;;;;;5007542;28;20109;-62
2022/07/07 10:55:06;;;;;;;9.23;3.72;;;18.10;99.90;;;;;;5007542;28;20058;-64
2022/07/07 10:57:46;;;;;;;4.90;3.65;;;18.00;99.90;;;;;;5007377;28;20657;-65
2022/07/07 11:00:26;;;;;;;5.90;3.90;;;17.80;99.90;;;;;;5007629;28;20036;-68
2022/07/07 11:02:57;;;;;;;8.45;4.18;;;17.60;99.90;;;;;;5007090;28;20044;-64
2022/07/07 11:05:29;;;;;;;8.48;3.90;;;17.70;99.90;;;;;;5008261;28;20083;-64
2022/07/07 11:08:06;;;;;;;5.80;3.95;;;17.80;99.90;;;;;;5006175;28;20030;-64
2022/07/07 11:10:50;;;;;;;8.85;4.15;;;18.00;99.90;;;;;;5008270;28;20030;-65
2022/07/07 11:13:22;;;;;;;9.35;4.38;;;18.30;99.90;;;;;;5001943;28;20029;-67
2022/07/07 11:16:07;;;;;;;8.32;4.50;;;18.30;99.90;;;;;;5008796;28;20030;-63
2022/07/07 11:18:34;;;;;;;9.40;4.60;;;18.30;99.90;;;;;;5006770;28;20026;-63
2022/07/07 11:21:03;;;;;;;9.43;4.18;;;18.30;99.90;;;;;;5005577;28;20048;-64
2022/07/07 11:23:50;;;;;;;11.98;3.83;;;18.40;99.90;;;;;;5006396;28;20086;-62
2022/07/07 11:26:18;;;;;;;8.13;4.10;;;18.40;99.90;;;;;;5006824;28;20052;-67
2022/07/07 11:28:44;;;;;;;7.38;3.70;;;18.60;99.90;;;;;;5007748;28;20081;-62
2022/07/07 11:31:11;;;;;;;7.13;3.95;;;18.70;99.90;;;;;;5007412;28;20064;-63
2022/07/07 11:33:39;;;;;;;5.72;3.40;;;18.90;99.90;;;;;;5006939;28;20033;-62
2022/07/07 11:36:14;;;;;;;11.18;3.53;;;18.90;99.90;;;;;;5008301;28;20026;-62
2022/07/07 11:38:40;;;;;;;5.78;3.55;;;18.90;99.90;;;;;;5001857;28;20056;-63
2022/07/07 11:41:06;;;;;;;8.98;3.67;;;19.00;99.90;;;;;;5007775;28;20103;-63
2022/07/07 11:43:31;;;;;;;7.38;3.45;;;19.30;99.90;;;;;;5007895;28;20534;-64
2022/07/07 11:45:57;;;;;;;5.25;3.05;;;19.50;99.90;;;;;;5003829;28;20372;-63
2022/07/07 11:48:23;;;;;;;5.65;2.75;;;19.60;99.90;;;;;;5006889;28;20156;-63
2022/07/07 11:50:49;;;;;;;9.43;3.58;;;19.80;99.90;;;;;;5023944;28;20474;-63
2022/07/07 11:53:15;;;;;;;12.07;3.22;;;20.00;99.90;;;;;;5006621;28;20029;-64
2022/07/07 11:55:42;;;;;;;3.50;2.58;;;20.10;99.90;;;;;;5004507;28;20061;-62
2022/07/07 11:58:09;;;;;;;7.50;3.25;;;20.30;99.90;;;;;;5007010;28;20026;-62
2022/07/07 12:00:37;;;;;;;7.22;3.08;;;20.60;99.90;;;;;;5005598;28;20030;-64
2022/07/07 12:03:05;;;;;;;6.68;3.30;;;20.40;99.90;;;;;;5008827;28;20479;-62
2022/07/07 12:05:43;;;;;;;6.20;3.35;;;19.90;99.90;;;;;;5005460;28;20037;-63
2022/07/07 12:08:12;;;;;;;8.25;3.00;;;19.70;99.90;;;;;;5005523;28;20164;-62
2022/07/07 12:10:52;;;;;;;7.78;3.30;;;19.50;99.90;;;;;;5005841;28;20034;-62
2022/07/07 12:13:18;;;;;;;5.75;2.92;;;19.20;99.90;;;;;;5008504;28;20030;-66
2022/07/07 12:15:50;;;;;;;7.47;3.30;;;18.90;99.90;;;;;;5009452;28;20080;-63
2022/07/07 12:18:37;;;;;;;8.73;3.67;;;18.70;99.90;;;;;;4998958;28;20029;-62
2022/07/07 12:21:06;;;;;;;7.78;3.35;;;18.70;99.90;;;;;;5011539;28;20092;-62
2022/07/07 12:23:53;;;;;;;7.25;3.45;;;18.70;99.90;;;;;;5010678;28;20486;-63
2022/07/07 12:26:26;;;;;;;9.75;3.42;;;18.80;99.90;;;;;;5001702;28;20073;-66
2022/07/07 12:28:58;;;;;;;9.57;3.20;;;18.80;99.90;;;;;;5008404;28;20041;-61
2022/07/07 12:31:25;;;;;;;5.25;3.00;;;19.00;99.90;;;;;;5010296;28;20033;-63
2022/07/07 12:33:50;;;;;;;6.22;3.20;;;19.10;99.90;;;;;;5011672;28;20108;-61
2022/07/07 12:36:17;;;;;;;4.65;3.17;;;19.10;99.90;;;;;;5008406;28;20105;-58
2022/07/07 12:38:44;;;;;;;8.13;3.40;;;19.10;99.90;;;;;;5010047;28;21936;-59
2022/07/07 12:41:27;;;;;;;9.85;3.35;;;19.40;99.90;;;;;;5008048;28;20034;-59
2022/07/07 12:43:55;;;;;;;5.43;3.30;;;19.70;99.90;;;;;;5009201;28;20060;-60
2022/07/07 12:46:31;;;;;;;7.72;2.92;;;19.90;99.90;;;;;;5008220;28;20088;-60
2022/07/07 12:48:59;;;;;;;5.72;3.17;;;20.10;99.90;;;;;;5010011;28;20033;-60
2022/07/07 12:51:26;;;;;;;7.13;2.83;;;19.80;99.90;;;;;;5010968;28;20032;-60